Kiowa, Colorado
Current Conditions -  °F | °C
As of 5:15 PM on Thursday 27 Nov 2014 (Local Time) from KMNH Reporting Station
Clear Clear  
Wind Chill: 50°   Ceiling: Unl
Heat Index: 50°   Visibility: 10mi
Dew Point: 16°   Wind: 8mph
Humidity: 26%   Direction: 270°W
Pressure: 30.21"   Gusts: NA
Location:  39.35°N, 104.46°W
Report Text: KMNH 280015Z AUTO 27007KT 10SM CLR 10/M09 A3021 RMK AO2
Loading
Personal Weather Stations






























Interactive Weather Map New forecast layout! Learn more

10-Day Weather Forecast

Advertisements
Track Severe Weather on mobile